Time;durP1;ratioP1;P1;durP2;ratioP2;P2;SDS_P1;SDS_P2;PMS_P1;PMS_P2;Temp;Humidity;BMP_temperature;BMP_pressure;BME280_temperature;BME280_humidity;BME280_pressure;Samples;Min_cycle;Max_cycle;Signal;HPM_P1;HPM_P2
2023/09/18 00:01:19;;;;;;;4.03;2.27;;;;;;;19.45;97.63;100763.94;5045033;22;20572;-72
2023/09/18 00:03:46;;;;;;;4.20;2.40;;;;;;;19.46;98.40;100768.25;5013912;28;20813;-72
2023/09/18 00:06:12;;;;;;;4.87;3.07;;;;;;;19.45;98.30;100764.72;5013852;28;20483;-72
2023/09/18 00:08:40;;;;;;;5.50;2.53;;;;;;;19.44;99.25;100763.13;5013650;28;20455;-72
2023/09/18 00:11:09;;;;;;;5.10;2.40;;;;;;;19.40;100.00;100760.31;5014127;28;20441;-72
2023/09/18 00:13:36;;;;;;;3.60;2.10;;;;;;;19.37;100.00;100758.25;5013940;28;20448;-72
2023/09/18 00:16:03;;;;;;;2.97;1.57;;;;;;;19.37;100.00;100760.22;5013749;28;20456;-72
2023/09/18 00:18:30;;;;;;;4.27;2.60;;;;;;;19.35;100.00;100760.56;5013665;28;20440;-72
2023/09/18 00:20:57;;;;;;;9.70;2.17;;;;;;;19.29;100.00;100755.69;5013968;28;20539;-72
2023/09/18 00:23:24;;;;;;;3.67;1.93;;;;;;;19.27;100.00;100753.31;5013844;28;20855;-72
2023/09/18 00:25:50;;;;;;;6.70;2.17;;;;;;;19.24;100.00;100755.97;5013153;28;21073;-72
2023/09/18 00:28:18;;;;;;;4.67;2.40;;;;;;;19.19;100.00;100748.78;5013336;28;20502;-72
2023/09/18 00:30:49;;;;;;;4.50;2.23;;;;;;;19.16;100.00;100760.47;5013623;28;20454;-72
2023/09/18 00:33:16;;;;;;;5.00;2.37;;;;;;;19.13;100.00;100759.25;5013899;28;20424;-72
2023/09/18 00:35:46;;;;;;;3.00;1.87;;;;;;;19.10;100.00;100750.94;5013455;28;20526;-72
2023/09/18 00:38:13;;;;;;;3.63;2.13;;;;;;;19.04;100.00;100746.88;5013334;28;20936;-72
2023/09/18 00:40:39;;;;;;;3.60;2.27;;;;;;;19.03;100.00;100742.50;5013485;28;20624;-72
2023/09/18 00:43:06;;;;;;;3.30;1.60;;;;;;;19.03;100.00;100737.00;5013453;28;20506;-72
2023/09/18 00:45:35;;;;;;;3.40;1.90;;;;;;;19.03;100.00;100734.25;5012966;28;20970;-71
2023/09/18 00:48:01;;;;;;;4.20;2.40;;;;;;;19.03;100.00;100729.56;5013839;28;20480;-72
2023/09/18 00:50:28;;;;;;;4.57;2.80;;;;;;;18.98;100.00;100726.28;5013157;28;20945;-72
2023/09/18 00:52:55;;;;;;;5.17;3.20;;;;;;;18.95;100.00;100727.00;5013353;28;20475;-72
2023/09/18 00:55:22;;;;;;;3.70;1.97;;;;;;;18.90;98.42;100734.38;5013420;28;20527;-72
2023/09/18 00:57:48;;;;;;;4.73;2.43;;;;;;;18.90;97.95;100731.63;5013633;28;20543;-71
2023/09/18 01:00:16;;;;;;;4.23;2.47;;;;;;;18.95;97.63;100727.00;5013611;28;20439;-71
2023/09/18 01:02:45;;;;;;;4.10;2.67;;;;;;;19.00;97.21;100733.03;5013266;28;20483;-71
2023/09/18 01:05:12;;;;;;;3.83;2.13;;;;;;;19.06;97.38;100730.81;5013345;28;20452;-71
2023/09/18 01:07:39;;;;;;;3.40;2.03;;;;;;;19.06;97.45;100722.59;5013234;28;20491;-71
2023/09/18 01:10:06;;;;;;;3.80;1.63;;;;;;;19.08;97.67;100731.25;5013284;28;20498;-71
2023/09/18 01:12:41;;;;;;;4.07;1.90;;;;;;;19.08;97.93;100721.09;5013385;28;20505;-71
2023/09/18 01:15:13;;;;;;;3.37;1.87;;;;;;;19.09;98.26;100713.66;5013260;28;20499;-71
2023/09/18 01:17:40;;;;;;;4.00;2.13;;;;;;;19.09;98.07;100711.69;5012796;28;20448;-71
2023/09/18 01:20:10;;;;;;;3.83;2.20;;;;;;;19.10;97.94;100713.28;5014193;28;20469;-71
2023/09/18 01:22:38;;;;;;;4.07;2.40;;;;;;;19.09;98.20;100711.69;5016717;28;20425;-72
2023/09/18 01:25:06;;;;;;;5.10;2.03;;;;;;;19.11;97.68;100714.06;5016642;28;20443;-72
2023/09/18 01:27:33;;;;;;;5.87;2.90;;;;;;;19.14;98.07;100716.13;5016568;28;20498;-72
2023/09/18 01:30:00;;;;;;;4.37;2.73;;;;;;;19.14;98.07;100711.41;5016845;28;20448;-72
2023/09/18 01:32:31;;;;;;;5.33;3.03;;;;;;;19.12;97.75;100710.16;5016924;28;20928;-72
2023/09/18 01:35:00;;;;;;;4.53;2.87;;;;;;;19.12;96.80;100710.16;5016163;28;20998;-72
2023/09/18 01:37:30;;;;;;;3.33;1.83;;;;;;;19.14;97.14;100705.13;5016355;28;20823;-72
2023/09/18 01:39:59;;;;;;;5.23;2.50;;;;;;;19.16;97.61;100708.31;5016396;28;20468;-73
2023/09/18 01:42:27;;;;;;;3.80;2.73;;;;;;;19.15;97.73;100709.47;5016723;28;21039;-72
2023/09/18 01:44:55;;;;;;;3.97;1.90;;;;;;;19.13;96.72;100698.84;5016038;28;20436;-72
2023/09/18 01:47:23;;;;;;;5.30;2.20;;;;;;;19.12;97.45;100715.66;5016116;28;20510;-72
2023/09/18 01:49:50;;;;;;;4.97;2.53;;;;;;;19.11;97.78;100708.56;5015950;28;20799;-72
2023/09/18 01:52:17;;;;;;;3.87;2.10;;;;;;;19.13;97.31;100711.78;5015904;28;20932;-72
2023/09/18 01:54:43;;;;;;;3.67;1.90;;;;;;;19.12;97.21;100699.19;5016155;28;20472;-72
2023/09/18 01:57:12;;;;;;;3.57;1.90;;;;;;;19.09;97.08;100694.41;5016406;28;20562;-72
2023/09/18 01:59:39;;;;;;;4.33;2.03;;;;;;;19.10;97.02;100679.53;5016460;28;20441;-72
2023/09/18 02:02:07;;;;;;;4.90;2.50;;;;;;;19.07;97.23;100675.53;5015693;28;20499;-72
2023/09/18 02:04:34;;;;;;;3.80;2.00;;;;;;;19.07;96.96;100670.03;5015815;28;20527;-72
2023/09/18 02:07:01;;;;;;;3.60;2.13;;;;;;;19.10;96.79;100663.84;5016146;28;20530;-72
2023/09/18 02:09:27;;;;;;;4.07;2.47;;;;;;;19.12;97.40;100663.47;5015890;28;20450;-72
2023/09/18 02:11:54;;;;;;;4.90;2.30;;;;;;;19.08;98.04;100657.94;5015536;28;21039;-72
2023/09/18 02:14:22;;;;;;;4.37;2.17;;;;;;;19.09;98.14;100651.28;5015450;28;20936;-72
2023/09/18 02:16:49;;;;;;;3.53;1.90;;;;;;;19.07;97.88;100652.78;5015694;28;20456;-72
2023/09/18 02:19:16;;;;;;;4.13;1.90;;;;;;;19.01;98.16;100645.97;5015338;28;20940;-72
2023/09/18 02:21:43;;;;;;;4.80;2.23;;;;;;;18.98;98.75;100639.25;5015544;28;20783;-72
2023/09/18 02:24:10;;;;;;;3.60;1.97;;;;;;;18.96;99.07;100635.28;5015587;28;20463;-71
2023/09/18 02:26:37;;;;;;;3.27;1.90;;;;;;;18.92;99.01;100640.69;5015099;28;20494;-72
2023/09/18 02:29:11;;;;;;;3.90;2.37;;;;;;;18.88;100.00;100632.34;5015585;28;20483;-72
2023/09/18 02:31:39;;;;;;;3.97;2.40;;;;;;;18.83;99.77;100640.88;5015508;28;20428;-72
2023/09/18 02:34:07;;;;;;;3.97;2.50;;;;;;;18.75;99.85;100636.34;5015085;28;20440;-71
2023/09/18 02:36:33;;;;;;;3.60;2.10;;;;;;;18.75;99.70;100633.59;5015276;28;20555;-72
2023/09/18 02:39:00;;;;;;;5.17;2.60;;;;;;;18.76;99.12;100632.44;5015286;28;20522;-72
2023/09/18 02:41:27;;;;;;;4.17;2.10;;;;;;;18.78;99.01;100630.16;5014883;28;20444;-72
2023/09/18 02:43:53;;;;;;;3.67;2.00;;;;;;;18.76;99.82;100621.47;5015262;28;20475;-72
2023/09/18 02:46:20;;;;;;;4.37;2.33;;;;;;;18.72;99.69;100625.28;5015029;28;20496;-73
2023/09/18 02:48:48;;;;;;;3.90;2.30;;;;;;;18.68;100.00;100614.19;5015079;28;20448;-72
2023/09/18 02:51:15;;;;;;;5.60;2.60;;;;;;;18.65;99.97;100614.91;5015061;28;20527;-72
2023/09/18 02:53:41;;;;;;;3.37;2.20;;;;;;;18.63;100.00;100611.72;5015145;28;21019;-72
2023/09/18 02:56:08;;;;;;;3.90;2.20;;;;;;;18.60;100.00;100605.00;5015308;28;20552;-72
2023/09/18 02:58:35;;;;;;;4.80;2.40;;;;;;;18.58;100.00;100598.25;5015108;28;20432;-72
2023/09/18 03:01:03;;;;;;;4.10;1.53;;;;;;;18.53;100.00;100602.06;5014919;28;20534;-72
2023/09/18 03:03:30;;;;;;;4.10;2.33;;;;;;;18.50;100.00;100600.03;5014982;28;20428;-72
2023/09/18 03:06:03;;;;;;;3.50;1.90;;;;;;;18.49;100.00;100589.41;5014763;28;20456;-72
2023/09/18 03:08:29;;;;;;;4.30;2.70;;;;;;;18.48;100.00;100588.63;5014434;28;20511;-72
2023/09/18 03:10:56;;;;;;;4.87;2.40;;;;;;;18.46;100.00;100577.22;5014379;28;20875;-72
2023/09/18 03:13:23;;;;;;;3.10;1.80;;;;;;;18.45;100.00;100583.03;5014648;28;20447;-72
2023/09/18 03:15:50;;;;;;;3.87;2.20;;;;;;;18.43;100.00;100585.34;5014598;28;20466;-72
2023/09/18 03:18:16;;;;;;;4.30;2.00;;;;;;;18.40;100.00;100587.63;5014625;28;21011;-72
2023/09/18 03:20:43;;;;;;;5.03;2.03;;;;;;;18.36;100.00;100580.47;5014302;28;20870;-72
2023/09/18 03:23:11;;;;;;;4.50;2.50;;;;;;;18.32;100.00;100576.84;5014524;28;20447;-72
2023/09/18 03:25:38;;;;;;;3.70;1.80;;;;;;;18.27;100.00;100577.91;5014526;28;20454;-72
2023/09/18 03:28:05;;;;;;;4.93;2.53;;;;;;;18.27;100.00;100579.84;5014669;28;20490;-72
2023/09/18 03:30:32;;;;;;;4.27;2.53;;;;;;;18.22;100.00;100580.91;5014042;28;20444;-72
2023/09/18 03:32:58;;;;;;;7.90;2.93;;;;;;;18.19;100.00;100586.31;5014996;28;20440;-72
2023/09/18 03:35:25;;;;;;;4.77;2.80;;;;;;;18.17;100.00;100583.13;5013965;28;20882;-72
2023/09/18 03:37:53;;;;;;;4.40;2.27;;;;;;;18.09;100.00;100582.13;5013995;28;20499;-72
2023/09/18 03:40:22;;;;;;;5.33;2.03;;;;;;;18.05;100.00;100590.25;5014537;28;20452;-72
2023/09/18 03:42:49;;;;;;;4.83;2.30;;;;;;;18.03;100.00;100576.13;5013519;28;20479;-72
2023/09/18 03:45:18;;;;;;;4.50;2.40;;;;;;;18.01;100.00;100574.88;5014228;28;20482;-72
2023/09/18 03:47:45;;;;;;;4.27;2.27;;;;;;;18.02;100.00;100576.47;5013916;28;20827;-72
2023/09/18 03:50:13;;;;;;;4.17;2.27;;;;;;;18.00;100.00;100573.28;5014053;28;20818;-72
2023/09/18 03:52:40;;;;;;;3.70;2.07;;;;;;;18.00;100.00;100573.28;5013720;28;20521;-72
2023/09/18 03:55:08;;;;;;;5.30;2.70;;;;;;;17.98;100.00;100575.59;5014320;28;20450;-72
2023/09/18 03:57:37;;;;;;;3.97;1.93;;;;;;;17.98;100.00;100575.59;5013911;28;20487;-72
2023/09/18 04:00:05;;;;;;;4.83;2.33;;;;;;;17.96;100.00;100570.44;5013954;28;20439;-72
2023/09/18 04:02:32;;;;;;;4.43;2.60;;;;;;;17.95;100.00;100568.06;5013673;28;20822;-72
2023/09/18 04:04:58;;;;;;;4.33;2.23;;;;;;;17.95;100.00;100559.84;5013854;28;20517;-72
2023/09/18 04:07:25;;;;;;;3.77;2.07;;;;;;;17.93;100.00;100551.16;5013434;28;20492;-72
2023/09/18 04:09:51;;;;;;;4.93;2.80;;;;;;;17.90;100.00;100542.50;5013494;28;20475;-73
2023/09/18 04:12:18;;;;;;;4.60;2.57;;;;;;;17.90;100.00;100548.00;5014004;28;20932;-72
2023/09/18 04:14:46;;;;;;;5.50;2.60;;;;;;;17.87;100.00;100548.69;5013772;28;20442;-72
2023/09/18 04:17:13;;;;;;;6.03;2.40;;;;;;;17.83;100.00;100541.50;5013714;28;20530;-72
2023/09/18 04:19:40;;;;;;;3.63;1.90;;;;;;;17.85;100.00;100540.03;5013665;28;20523;-72
2023/09/18 04:22:08;;;;;;;5.03;2.73;;;;;;;17.85;100.00;100542.75;5013692;28;20479;-72
2023/09/18 04:24:34;;;;;;;3.40;1.97;;;;;;;17.81;100.00;100539.13;5013671;28;20448;-72
2023/09/18 04:27:01;;;;;;;4.10;2.23;;;;;;;17.82;100.00;100529.75;5013814;28;20582;-72
2023/09/18 04:29:27;;;;;;;3.70;2.13;;;;;;;17.83;100.00;100528.59;5013644;28;20444;-71
2023/09/18 04:31:55;;;;;;;3.67;2.00;;;;;;;17.83;100.00;100525.88;5013595;28;20531;-71
2023/09/18 04:34:22;;;;;;;4.43;2.43;;;;;;;17.82;100.00;100527.03;5013679;28;20447;-72
2023/09/18 04:36:49;;;;;;;5.27;2.77;;;;;;;17.85;100.00;100526.31;5014093;28;20538;-71
2023/09/18 04:39:15;;;;;;;3.73;2.00;;;;;;;17.87;100.00;100515.78;5013278;28;20534;-71
2023/09/18 04:41:42;;;;;;;4.40;1.80;;;;;;;17.87;100.00;100521.28;5013752;28;20487;-71
2023/09/18 04:44:09;;;;;;;3.93;2.10;;;;;;;17.86;100.00;100518.91;5013647;28;20531;-71
2023/09/18 04:46:36;;;;;;;4.03;2.30;;;;;;;17.89;100.00;100519.00;5013399;28;20500;-71
2023/09/18 04:49:04;;;;;;;3.60;2.43;;;;;;;17.92;100.00;100513.94;5013201;28;20490;-71
2023/09/18 04:51:33;;;;;;;3.87;2.23;;;;;;;17.95;100.00;100518.72;5013589;28;20443;-71
2023/09/18 04:54:00;;;;;;;2.90;1.60;;;;;;;17.95;100.00;100529.69;5013445;28;20950;-72
2023/09/18 04:56:27;;;;;;;3.83;2.13;;;;;;;17.95;100.00;100516.78;5016985;28;20963;-73
2023/09/18 04:58:53;;;;;;;3.80;2.13;;;;;;;17.99;100.00;100517.69;5017348;28;20767;-73
2023/09/18 05:01:20;;;;;;;4.00;2.27;;;;;;;18.00;100.00;100512.97;5016711;28;20542;-73
2023/09/18 05:03:48;;;;;;;6.13;2.47;;;;;;;18.01;100.00;100512.63;5017149;28;20440;-73
2023/09/18 05:06:17;;;;;;;4.13;2.20;;;;;;;18.01;100.00;100512.63;5017425;28;20468;-72
2023/09/18 05:08:44;;;;;;;4.70;2.63;;;;;;;18.03;100.00;100513.06;5017515;28;20496;-73
2023/09/18 05:11:11;;;;;;;3.97;1.97;;;;;;;18.07;100.00;100510.44;5016689;28;20446;-73
2023/09/18 05:13:38;;;;;;;3.30;1.70;;;;;;;18.08;100.00;100501.06;5017234;28;20868;-73
2023/09/18 05:16:05;;;;;;;6.20;2.67;;;;;;;18.07;100.00;100499.47;5016464;28;20464;-72
2023/09/18 05:18:32;;;;;;;3.47;1.80;;;;;;;18.08;100.00;100499.09;5016945;28;20439;-73
2023/09/18 05:20:58;;;;;;;4.50;2.60;;;;;;;18.10;100.00;100501.47;5016798;28;20448;-72
2023/09/18 05:23:27;;;;;;;4.30;1.80;;;;;;;18.15;100.00;100493.00;5016824;28;20443;-73
2023/09/18 05:25:53;;;;;;;4.67;2.23;;;;;;;18.18;100.00;100496.97;5016367;28;20916;-72
2023/09/18 05:28:20;;;;;;;3.43;1.77;;;;;;;18.22;100.00;100501.41;5016715;28;20926;-72
2023/09/18 05:30:46;;;;;;;4.93;2.83;;;;;;;18.26;100.00;100502.28;5016276;28;20452;-72
2023/09/18 05:33:13;;;;;;;3.87;2.20;;;;;;;18.32;100.00;100500.06;5016208;28;20890;-72
2023/09/18 05:35:42;;;;;;;3.57;1.87;;;;;;;18.37;100.00;100497.03;5016342;28;20527;-72
2023/09/18 05:38:09;;;;;;;5.47;2.20;;;;;;;18.44;100.00;100502.69;5016099;28;20928;-72
2023/09/18 05:40:37;;;;;;;4.30;2.07;;;;;;;18.45;100.00;100487.03;5016405;28;20448;-72
2023/09/18 05:43:04;;;;;;;3.93;2.30;;;;;;;18.47;100.00;100485.53;5016642;28;20472;-73
2023/09/18 05:45:31;;;;;;;6.30;2.27;;;;;;;18.52;100.00;100484.47;5016319;28;20514;-71
2023/09/18 05:48:03;;;;;;;4.87;2.30;;;;;;;18.57;100.00;100481.44;5016242;28;21000;-71
2023/09/18 05:50:31;;;;;;;4.07;2.30;;;;;;;18.65;100.00;100477.72;5015926;28;20811;-71
2023/09/18 05:52:59;;;;;;;4.53;2.80;;;;;;;18.72;100.00;100471.59;5016228;28;20458;-71
2023/09/18 05:55:26;;;;;;;4.77;2.60;;;;;;;18.79;100.00;100474.50;5016765;28;20459;-71
2023/09/18 05:57:54;;;;;;;7.00;2.67;;;;;;;18.86;100.00;100461.75;5016464;28;20437;-71
2023/09/18 06:00:21;;;;;;;3.93;2.10;;;;;;;18.94;100.00;100461.88;5016345;28;20527;-73
2023/09/18 06:02:48;;;;;;;4.27;2.73;;;;;;;18.99;100.00;100456.09;5044367;22;20553;-72
2023/09/18 06:05:16;;;;;;;3.53;2.03;;;;;;;19.07;100.00;100444.09;5043748;28;20446;-70
2023/09/18 06:07:44;;;;;;;5.73;2.77;;;;;;;19.12;100.00;100452.03;5039573;28;20501;-70
2023/09/18 06:10:11;;;;;;;4.20;2.33;;;;;;;19.16;99.63;100448.22;5038065;28;20501;-69
2023/09/18 06:12:39;;;;;;;4.23;2.60;;;;;;;19.22;99.91;100451.50;5037875;28;20478;-71
2023/09/18 06:15:09;;;;;;;7.83;2.60;;;;;;;19.28;99.53;100444.53;5036766;28;20493;-70
2023/09/18 06:17:36;;;;;;;4.10;2.13;;;;;;;19.31;98.70;100443.03;5036767;28;20459;-72
2023/09/18 06:20:04;;;;;;;4.60;2.50;;;;;;;19.34;98.70;100437.56;5035442;28;20530;-71
2023/09/18 06:22:30;;;;;;;4.40;2.10;;;;;;;19.41;98.76;100445.16;5035427;28;20478;-72
2023/09/18 06:24:57;;;;;;;4.50;2.30;;;;;;;19.44;98.72;100436.19;5038334;28;20447;-72
2023/09/18 06:27:24;;;;;;;5.57;2.60;;;;;;;19.52;98.00;100437.09;5035555;28;20463;-73
2023/09/18 06:29:50;;;;;;;3.83;2.30;;;;;;;19.55;97.40;100428.94;5035942;28;21014;-71
2023/09/18 06:32:18;;;;;;;4.87;2.40;;;;;;;19.61;96.49;100430.25;5036541;28;20486;-72
2023/09/18 06:34:47;;;;;;;3.83;2.13;;;;;;;19.67;96.04;100428.00;5035286;28;20970;-72
2023/09/18 06:37:13;;;;;;;4.03;2.60;;;;;;;19.70;96.57;100426.47;5036036;28;20475;-70
2023/09/18 06:39:40;;;;;;;3.33;1.80;;;;;;;19.73;96.73;100423.78;5034990;28;20836;-70
2023/09/18 06:42:07;;;;;;;5.60;2.50;;;;;;;19.74;97.48;100408.88;5035182;28;20443;-69
2023/09/18 06:44:34;;;;;;;3.90;2.27;;;;;;;19.78;97.85;100414.44;5035072;28;20541;-68
2023/09/18 06:47:00;;;;;;;4.43;2.40;;;;;;;19.82;97.27;100413.31;5034887;28;20517;-68
2023/09/18 06:49:28;;;;;;;3.90;2.03;;;;;;;19.87;96.07;100413.00;5034490;28;21085;-68
2023/09/18 06:51:55;;;;;;;4.77;2.53;;;;;;;19.93;96.14;100407.22;5034829;28;20517;-69
2023/09/18 06:54:21;;;;;;;4.70;2.50;;;;;;;20.00;96.28;100404.56;5034828;28;20445;-69
2023/09/18 06:56:48;;;;;;;3.50;2.00;;;;;;;20.11;94.84;100403.56;5034638;28;20466;-69
2023/09/18 06:59:15;;;;;;;5.20;2.23;;;;;;;20.22;94.37;100394.69;5034437;28;20510;-69
2023/09/18 07:01:42;;;;;;;5.13;2.70;;;;;;;20.28;93.64;100390.47;5034455;28;20541;-69
2023/09/18 07:04:09;;;;;;;3.93;2.17;;;;;;;20.37;93.46;100386.28;5034335;28;20903;-68
2023/09/18 07:06:38;;;;;;;4.10;1.93;;;;;;;20.47;92.50;100371.06;5034470;28;20462;-68
2023/09/18 07:09:06;;;;;;;3.77;2.17;;;;;;;20.53;93.05;100368.81;5034267;28;20537;-68
2023/09/18 07:11:33;;;;;;;3.60;2.00;;;;;;;20.60;93.18;100374.41;5034264;28;20500;-68
2023/09/18 07:14:01;;;;;;;4.37;2.00;;;;;;;20.63;92.50;100373.66;5034470;28;20473;-68
2023/09/18 07:16:27;;;;;;;4.00;2.10;;;;;;;20.72;92.67;100367.84;5034331;28;20459;-68
2023/09/18 07:18:54;;;;;;;4.13;2.43;;;;;;;20.81;91.49;100363.66;5034044;28;20466;-68
2023/09/18 07:21:20;;;;;;;4.97;2.70;;;;;;;20.92;90.77;100372.81;5034150;28;20994;-68
2023/09/18 07:23:48;;;;;;;3.60;2.13;;;;;;;21.01;90.82;100368.97;5034832;28;20443;-68
2023/09/18 07:26:15;;;;;;;4.57;2.60;;;;;;;21.07;90.02;100361.94;5034525;28;20473;-68
2023/09/18 07:28:44;;;;;;;3.23;1.77;;;;;;;21.17;89.59;100369.53;5034127;28;20478;-68
2023/09/18 07:31:14;;;;;;;3.80;2.00;;;;;;;21.26;88.42;100372.78;5034656;28;20439;-68
2023/09/18 07:33:41;;;;;;;4.80;2.47;;;;;;;21.36;86.73;100358.34;5034767;28;20522;-68
2023/09/18 07:36:09;;;;;;;4.43;2.20;;;;;;;21.49;86.52;100364.38;5033596;28;20459;-68
2023/09/18 07:38:36;;;;;;;3.87;2.10;;;;;;;21.58;86.48;100358.53;5034274;28;20466;-68
2023/09/18 07:41:04;;;;;;;3.50;2.00;;;;;;;21.70;84.66;100363.75;5033724;28;20471;-68
2023/09/18 07:43:31;;;;;;;3.10;1.60;;;;;;;21.79;83.78;100361.47;5034287;28;20443;-68
2023/09/18 07:45:59;;;;;;;3.73;2.10;;;;;;;21.82;84.02;100359.88;5033581;28;20978;-68
2023/09/18 07:48:26;;;;;;;5.67;2.53;;;;;;;21.89;83.69;100352.47;5033960;28;20506;-68
2023/09/18 07:50:54;;;;;;;3.23;1.70;;;;;;;21.98;83.47;100351.34;5033846;28;20522;-68
2023/09/18 07:53:21;;;;;;;3.40;1.77;;;;;;;22.03;83.92;100356.50;5033884;28;20479;-68
2023/09/18 07:55:49;;;;;;;4.67;2.30;;;;;;;22.09;83.66;100358.50;5033835;28;20459;-68
2023/09/18 07:58:17;;;;;;;3.80;1.93;;;;;;;22.21;82.43;100356.63;5034105;28;20475;-68
2023/09/18 08:00:43;;;;;;;3.60;2.00;;;;;;;22.25;81.58;100349.16;5033782;28;20439;-68
2023/09/18 08:03:10;;;;;;;3.87;2.37;;;;;;;22.36;80.55;100342.53;5033736;28;20961;-68
2023/09/18 08:05:37;;;;;;;3.57;2.03;;;;;;;22.46;80.73;100334.69;5033620;28;20451;-68
2023/09/18 08:08:05;;;;;;;3.60;1.90;;;;;;;22.49;81.23;100328.38;5033545;28;20443;-68
2023/09/18 08:10:32;;;;;;;3.83;1.90;;;;;;;22.55;80.76;100315.78;5033961;28;20439;-68
2023/09/18 08:12:58;;;;;;;4.00;2.10;;;;;;;22.65;79.23;100335.13;5033229;28;20439;-67
2023/09/18 08:15:27;;;;;;;4.40;1.73;;;;;;;22.77;79.82;100336.75;5033831;28;20518;-67
2023/09/18 08:17:53;;;;;;;3.50;1.90;;;;;;;22.90;78.90;100335.25;5033470;28;20443;-67
2023/09/18 08:20:20;;;;;;;3.50;1.97;;;;;;;23.01;78.33;100332.50;5033597;28;20438;-67
2023/09/18 08:22:48;;;;;;;3.27;1.63;;;;;;;23.10;77.53;100337.66;5033614;28;20542;-67
2023/09/18 08:25:14;;;;;;;8.13;2.20;;;;;;;23.19;77.50;100329.75;5033303;28;20455;-67
2023/09/18 08:27:43;;;;;;;3.57;1.90;;;;;;;23.24;77.21;100331.34;5033295;28;20550;-67
2023/09/18 08:30:11;;;;;;;3.63;1.83;;;;;;;23.40;76.00;100340.06;5036733;28;20569;-67
2023/09/18 08:32:40;;;;;;;2.97;1.80;;;;;;;23.51;75.92;100329.81;5037426;28;20439;-68
2023/09/18 08:35:07;;;;;;;3.83;2.10;;;;;;;23.63;75.48;100329.38;5037087;28;20957;-68
2023/09/18 08:37:34;;;;;;;3.50;1.90;;;;;;;23.74;74.88;100326.66;5036992;28;21001;-68
2023/09/18 08:40:09;;;;;;;5.17;2.33;;;;;;;23.86;74.29;100323.47;5037344;28;20552;-68
2023/09/18 08:42:37;;;;;;;3.20;1.50;;;;;;;23.96;74.46;100326.63;5037049;28;20887;-68
2023/09/18 08:45:09;;;;;;;3.27;1.60;;;;;;;23.99;74.67;100325.81;5037718;28;20461;-68
2023/09/18 08:47:36;;;;;;;4.57;2.40;;;;;;;24.04;74.47;100317.09;5037488;28;20503;-68
2023/09/18 08:50:05;;;;;;;4.07;1.87;;;;;;;24.10;73.05;100323.81;5036777;28;20482;-68
2023/09/18 08:52:31;;;;;;;3.77;1.93;;;;;;;24.17;74.15;100315.47;5037099;28;20442;-67
2023/09/18 08:54:58;;;;;;;4.63;2.27;;;;;;;24.28;74.45;100313.47;5037040;28;20534;-70
2023/09/18 08:57:26;;;;;;;3.30;2.13;;;;;;;24.36;73.81;100312.25;5037095;28;20499;-68
2023/09/18 08:59:55;;;;;;;3.67;2.30;;;;;;;24.37;71.39;100300.00;5037658;28;20448;-68
2023/09/18 09:02:21;;;;;;;3.20;1.90;;;;;;;24.52;71.77;100294.41;5036961;28;20550;-68
2023/09/18 09:04:48;;;;;;;4.37;2.00;;;;;;;24.65;71.46;100285.22;5037457;28;20471;-68
2023/09/18 09:07:16;;;;;;;3.77;2.30;;;;;;;24.80;71.11;100285.16;5036900;28;20550;-68
2023/09/18 09:09:43;;;;;;;3.70;1.80;;;;;;;24.88;71.88;100287.47;5036439;28;20828;-68
2023/09/18 09:12:13;;;;;;;4.63;2.53;;;;;;;24.98;71.20;100276.72;5037196;28;20435;-68
2023/09/18 09:14:39;;;;;;;4.90;2.47;;;;;;;25.04;69.94;100284.19;5036811;28;20438;-68
2023/09/18 09:17:07;;;;;;;3.47;1.50;;;;;;;25.10;69.69;100276.25;5036687;28;20513;-68
2023/09/18 09:19:38;;;;;;;3.70;1.80;;;;;;;25.18;69.64;100277.78;5036265;28;20493;-68
2023/09/18 09:22:07;;;;;;;3.77;2.30;;;;;;;25.26;70.54;100278.53;5036777;28;20427;-68
2023/09/18 09:24:40;;;;;;;3.50;1.70;;;;;;;25.23;67.49;100269.03;5036321;28;20501;-68
2023/09/18 09:27:08;;;;;;;3.83;2.10;;;;;;;25.25;68.46;100263.09;5036087;28;20470;-68
2023/09/18 09:29:35;;;;;;;4.67;2.03;;;;;;;25.37;68.19;100263.38;5036621;28;20491;-68
2023/09/18 09:32:14;;;;;;;3.23;1.70;;;;;;;25.48;69.21;100268.03;5036466;28;20439;-69
2023/09/18 09:34:43;;;;;;;3.93;2.33;;;;;;;25.50;69.58;100263.66;5036541;28;20419;-69
2023/09/18 09:37:10;;;;;;;4.83;2.27;;;;;;;25.59;69.34;100258.41;5035984;28;20472;-69
2023/09/18 09:39:49;;;;;;;4.03;2.57;;;;;;;25.63;65.50;100263.91;5036707;28;20447;-68
2023/09/18 09:42:23;;;;;;;3.50;1.90;;;;;;;25.71;67.22;100265.41;5035152;28;20438;-68
2023/09/18 09:45:01;;;;;;;4.33;2.30;;;;;;;25.77;66.54;100272.13;5036326;28;20460;-68
2023/09/18 09:47:30;;;;;;;5.40;2.23;;;;;;;25.75;67.67;100255.06;5036206;28;20451;-68
2023/09/18 09:49:56;;;;;;;3.83;2.10;;;;;;;25.68;67.47;100260.69;5036187;28;20548;-68
2023/09/18 09:52:23;;;;;;;4.50;2.00;;;;;;;25.79;66.83;100255.84;5036065;28;20440;-68
2023/09/18 09:54:51;;;;;;;4.10;2.30;;;;;;;25.88;65.45;100249.81;5036016;28;20451;-68
2023/09/18 09:57:18;;;;;;;5.00;2.10;;;;;;;25.99;63.33;100249.69;5036347;28;20459;-68
2023/09/18 09:59:44;;;;;;;3.40;2.10;;;;;;;26.01;65.41;100245.28;5035882;28;20439;-68
2023/09/18 10:02:14;;;;;;;3.53;1.90;;;;;;;26.00;64.48;100234.59;5035614;28;20453;-69
2023/09/18 10:04:43;;;;;;;3.53;1.70;;;;;;;26.15;64.55;100233.22;5035833;28;20482;-69
2023/09/18 10:07:10;;;;;;;2.77;1.57;;;;;;;26.17;62.60;100239.16;5035863;28;20469;-68
2023/09/18 10:09:40;;;;;;;3.03;1.70;;;;;;;26.16;64.32;100218.94;5035852;28;20479;-68
2023/09/18 10:12:12;;;;;;;3.53;1.83;;;;;;;26.12;63.53;100226.53;5035722;28;20510;-69
2023/09/18 10:14:42;;;;;;;4.17;2.20;;;;;;;26.17;65.20;100217.72;5035536;28;20783;-69
2023/09/18 10:17:17;;;;;;;3.97;2.37;;;;;;;26.24;67.22;100222.38;5035573;28;20470;-69
2023/09/18 10:19:51;;;;;;;3.20;1.63;;;;;;;26.25;65.08;100215.63;5035976;28;20509;-69
2023/09/18 10:22:26;;;;;;;6.80;2.53;;;;;;;26.29;63.57;100238.56;5035346;28;20463;-68
2023/09/18 10:24:57;;;;;;;3.30;2.00;;;;;;;26.44;63.78;100242.00;5035442;28;20435;-69
2023/09/18 10:27:26;;;;;;;5.70;2.70;;;;;;;26.58;64.39;100252.13;5035516;28;20534;-69
2023/09/18 10:29:54;;;;;;;3.90;2.07;;;;;;;26.70;62.25;100248.78;5035262;28;20483;-68
2023/09/18 10:32:22;;;;;;;3.93;1.77;;;;;;;26.70;60.47;100262.66;5035701;28;20469;-68
2023/09/18 10:34:49;;;;;;;3.07;1.90;;;;;;;26.57;61.81;100270.78;5035902;28;20630;-68
2023/09/18 10:37:16;;;;;;;4.57;2.20;;;;;;;26.57;61.30;100264.44;5034734;28;20502;-68
2023/09/18 10:39:44;;;;;;;3.70;1.93;;;;;;;26.58;61.13;100275.13;5035214;28;20514;-68
2023/09/18 10:42:13;;;;;;;3.63;2.33;;;;;;;26.64;61.68;100269.88;5035841;28;20438;-68
2023/09/18 10:44:42;;;;;;;4.93;2.50;;;;;;;26.62;62.09;100263.97;5035069;28;20439;-68
2023/09/18 10:47:11;;;;;;;7.03;2.40;;;;;;;26.52;62.54;100240.69;5035118;28;20468;-68
2023/09/18 10:49:38;;;;;;;4.43;2.53;;;;;;;26.49;64.07;100246.31;5034998;28;20509;-68
2023/09/18 10:52:05;;;;;;;4.17;2.43;;;;;;;26.39;61.97;100240.44;5033951;28;21011;-68
2023/09/18 10:54:34;;;;;;;6.23;3.27;;;;;;;26.47;63.47;100238.38;5034495;28;20439;-68
2023/09/18 10:57:01;;;;;;;6.87;3.23;;;;;;;26.51;64.85;100241.88;5035075;28;20467;-67
2023/09/18 10:59:29;;;;;;;3.77;2.20;;;;;;;26.41;63.92;100240.81;5034681;28;20439;-67
2023/09/18 11:01:57;;;;;;;4.57;2.00;;;;;;;26.34;63.51;100257.59;5034505;28;20542;-68
2023/09/18 11:04:24;;;;;;;4.57;2.00;;;;;;;26.33;64.04;100255.97;5033066;28;20450;-67
2023/09/18 11:07:05;;;;;;;3.80;2.03;;;;;;;26.21;65.80;100259.34;5034310;28;20546;-68
2023/09/18 11:09:40;;;;;;;3.27;2.07;;;;;;;26.05;67.51;100250.81;5034631;28;20986;-67
2023/09/18 11:12:09;;;;;;;4.50;2.40;;;;;;;25.86;64.16;100246.66;5034616;28;20431;-69
2023/09/18 11:14:48;;;;;;;3.23;1.93;;;;;;;25.82;64.45;100263.34;5034577;28;20527;-67
2023/09/18 11:17:34;;;;;;;3.50;2.13;;;;;;;25.79;64.60;100252.28;5034112;28;20802;-72
2023/09/18 11:20:08;;;;;;;3.57;1.93;;;;;;;25.79;64.57;100257.84;5034471;28;20427;-69
2023/09/18 11:22:35;;;;;;;3.50;1.93;;;;;;;25.78;64.48;100259.81;5034393;28;20423;-69
2023/09/18 11:25:38;;;;;;;4.90;2.30;;;;;;;25.88;63.93;100261.69;5034786;28;20526;-69